Time;durP1;ratioP1;P1;durP2;ratioP2;P2;SDS_P1;SDS_P2;PMS_P1;PMS_P2;Temp;Humidity;BMP_temperature;BMP_pressure;BME280_temperature;BME280_humidity;BME280_pressure;Samples;Min_cycle;Max_cycle;Signal;HPM_P1;HPM_P2
2021/01/13 00:00:20;;;;;;;8.58;4.80;;;;;;;1.67;75.36;99204.22;2049218;84;33858;-66
2021/01/13 00:03:24;;;;;;;9.48;5.30;;;;;;;1.62;75.51;99205.28;1997392;87;27709;-67
2021/01/13 00:06:26;;;;;;;9.53;4.42;;;;;;;1.55;75.67;99198.47;2058618;86;27843;-68
2021/01/13 00:09:29;;;;;;;7.75;4.78;;;;;;;1.52;75.86;99200.73;1969575;86;28473;-67
2021/01/13 00:12:32;;;;;;;11.65;4.80;;;;;;;1.53;75.94;99200.29;1976077;86;31018;-67
2021/01/13 00:15:34;;;;;;;10.90;5.47;;;;;;;1.49;75.88;99196.89;1976908;86;33875;-67
2021/01/13 00:18:36;;;;;;;10.03;5.47;;;;;;;1.49;75.99;99194.25;2003783;86;29431;-67
2021/01/13 00:21:40;;;;;;;9.50;5.30;;;;;;;1.47;76.01;99194.28;2035801;82;27791;-67
2021/01/13 00:24:57;;;;;;;;;;;;;;;;;;;;;
2021/01/13 00:28:03;;;;;;;13.67;5.93;;;;;;;1.57;76.13;99193.55;2231118;77;27728;-68
2021/01/13 00:31:05;;;;;;;16.48;7.15;;;;;;;1.50;76.07;99198.15;2136694;79;27796;-67
2021/01/13 00:34:13;;;;;;;18.27;6.33;;;;;;;1.49;76.12;99198.21;2124399;79;28828;-66
2021/01/13 00:37:18;;;;;;;11.65;6.37;;;;;;;1.46;76.15;99199.62;2157562;79;31352;-67
2021/01/13 00:40:20;;;;;;;16.40;6.20;;;;;;;1.45;76.26;99209.77;2121859;81;33916;-67
2021/01/13 00:43:22;;;;;;;11.43;5.50;;;;;;;1.42;76.36;99203.25;2133832;79;28986;-68
2021/01/13 00:46:37;;;;;;;10.32;5.42;;;;;;;1.39;76.35;99201.58;2155454;79;27766;-67
2021/01/13 00:49:39;;;;;;;11.93;5.15;;;;;;;1.39;76.45;99202.02;2157560;81;28627;-67
2021/01/13 00:52:50;;;;;;;10.58;5.78;;;;;;;1.44;76.70;99203.60;2134247;81;31152;-68
2021/01/13 00:55:54;;;;;;;8.08;4.50;;;;;;;1.44;76.63;99210.67;2114121;83;28212;-67
2021/01/13 00:58:58;;;;;;;13.58;5.67;;;;;;;1.45;76.68;99214.57;2031232;84;29331;-68
2021/01/13 01:02:00;;;;;;;10.65;5.53;;;;;;;1.48;76.81;99216.27;2061999;84;27719;-68
2021/01/13 01:05:02;;;;;;;8.15;4.60;;;;;;;1.48;76.74;99217.59;2092576;83;29819;-68
2021/01/13 01:08:05;;;;;;;4.75;3.70;;;;;;;1.48;76.80;99226.36;2115339;83;31152;-69
2021/01/13 01:11:07;;;;;;;7.35;4.22;;;;;;;1.47;76.81;99235.19;2013149;84;32924;-69
2021/01/13 01:14:11;;;;;;;7.20;4.17;;;;;;;1.45;76.93;99238.32;2082362;83;29912;-67
2021/01/13 01:17:13;;;;;;;6.12;4.22;;;;;;;1.44;76.95;99245.83;2066589;84;27832;-68
2021/01/13 01:20:16;;;;;;;8.88;4.45;;;;;;;1.43;77.02;99252.02;2052601;82;29800;-68
2021/01/13 01:23:18;;;;;;;5.08;3.70;;;;;;;1.41;77.02;99255.61;2042300;84;30782;-67
2021/01/13 01:26:20;;;;;;;10.15;4.05;;;;;;;1.43;77.02;99265.68;2077472;82;33324;-67
2021/01/13 01:29:23;;;;;;;8.83;4.15;;;;;;;1.46;77.05;99265.12;2084469;84;28846;-68
2021/01/13 01:32:28;;;;;;;6.50;3.52;;;;;;;1.52;77.12;99274.63;2112513;82;27725;-67
2021/01/13 01:35:31;;;;;;;8.70;3.70;;;;;;;1.51;77.00;99273.78;2119244;81;29610;-67
2021/01/13 01:38:33;;;;;;;19.02;3.87;;;;;;;1.55;77.07;99285.58;2036863;83;30943;-69
2021/01/13 01:41:35;;;;;;;4.58;3.20;;;;;;;1.53;77.00;99292.20;2034053;84;33336;-67
2021/01/13 01:44:37;;;;;;;3.62;2.83;;;;;;;1.50;77.02;99295.80;2125259;81;27817;-67
2021/01/13 01:48:09;;;;;;;5.40;3.12;;;;;;;1.48;76.98;99302.90;2086965;82;27700;-68
2021/01/13 01:51:15;;;;;;;5.28;2.50;;;;;;;1.49;77.00;99303.78;2119776;81;28935;-67
2021/01/13 01:54:24;;;;;;;5.33;2.00;;;;;;;1.45;76.86;99306.09;2048241;84;31945;-68
2021/01/13 01:57:27;;;;;;;3.67;2.00;;;;;;;1.40;76.80;99310.19;2085444;84;33127;-67
2021/01/13 02:00:30;;;;;;;4.08;2.20;;;;;;;1.36;76.76;99308.53;2115427;81;29813;-68
2021/01/13 02:03:52;;;;;;;3.20;2.08;;;;;;;1.29;76.70;99311.80;2063728;84;27729;-66
2021/01/13 02:07:03;;;;;;;2.40;1.35;;;;;;;1.29;76.64;99312.23;2105026;82;28508;-67
2021/01/13 02:10:06;;;;;;;3.98;1.67;;;;;;;1.28;76.57;99317.98;2127762;82;32101;-67
2021/01/13 02:13:09;;;;;;;7.05;2.17;;;;;;;1.28;76.30;99318.41;2107478;83;34078;-69
2021/01/13 02:16:15;;;;;;;4.22;1.87;;;;;;;1.29;76.22;99321.47;2104561;83;28853;-67
2021/01/13 02:19:48;;;;;;;4.40;1.72;;;;;;;1.28;76.02;99324.58;2083197;82;28247;-67
2021/01/13 02:23:04;;;;;;;10.10;1.85;;;;;;;1.27;75.95;99338.67;2122670;82;29258;-68
2021/01/13 02:26:35;;;;;;;4.00;1.15;;;;;;;1.26;75.78;99333.42;2066273;81;29909;-67
2021/01/13 02:29:44;;;;;;;3.10;1.47;;;;;;;1.21;75.74;99337.07;2058915;86;32939;-67
2021/01/13 02:32:59;;;;;;;10.20;1.60;;;;;;;1.18;75.52;99342.42;2220780;77;27633;-66
2021/01/13 02:36:22;;;;;;;1.95;1.20;;;;;;;1.07;75.42;99341.85;2136429;79;27764;-67
2021/01/13 02:39:26;;;;;;;3.87;1.55;;;;;;;0.98;75.24;99336.80;2168684;79;28772;-67
2021/01/13 02:42:33;;;;;;;7.33;1.57;;;;;;;0.89;75.20;99339.22;2175019;81;32230;-67
2021/01/13 02:45:44;;;;;;;4.00;1.40;;;;;;;0.78;75.11;99355.30;2188395;79;33130;-67
2021/01/13 02:48:48;;;;;;;4.33;1.90;;;;;;;0.70;75.08;99346.73;2095500;82;28624;-67
2021/01/13 02:51:58;;;;;;;3.05;1.50;;;;;;;0.66;75.06;99351.66;2151654;80;27686;-66
2021/01/13 02:55:04;;;;;;;1.98;1.30;;;;;;;0.58;75.03;99357.97;2173954;80;28700;-66
2021/01/13 02:58:08;;;;;;;2.05;1.37;;;;;;;0.54;75.11;99355.45;2155792;80;31129;-66
2021/01/13 03:01:10;;;;;;;3.83;1.13;;;;;;;0.49;75.21;99356.88;2120544;80;33182;-66
2021/01/13 03:04:13;;;;;;;6.00;1.87;;;;;;;0.44;75.34;99373.25;2134084;80;28882;-66
2021/01/13 03:07:17;;;;;;;4.05;1.85;;;;;;;0.42;75.60;99372.41;2128833;80;27786;-66
2021/01/13 03:10:24;;;;;;;5.08;2.45;;;;;;;0.39;75.67;99373.36;2138550;80;28939;-66
2021/01/13 03:13:31;;;;;;;3.87;2.15;;;;;;;0.38;75.76;99378.67;2162972;80;31162;-66
2021/01/13 03:16:37;;;;;;;5.17;2.12;;;;;;;0.36;75.88;99387.91;2187239;80;34068;-66
2021/01/13 03:20:20;;;;;;;4.72;2.25;;;;;;;0.36;76.13;99389.23;2159150;80;28791;-66
2021/01/13 03:23:27;;;;;;;6.72;2.72;;;;;;;0.39;76.45;99387.84;2179880;80;28168;-67
2021/01/13 03:26:33;;;;;;;6.08;2.10;;;;;;;0.43;76.58;99400.06;2178895;81;30204;-67
2021/01/13 03:29:37;;;;;;;5.50;2.33;;;;;;;0.47;76.52;99402.62;2150621;80;31190;-67
2021/01/13 03:33:07;;;;;;;5.70;2.00;;;;;;;0.49;76.59;99408.27;2135505;82;32383;-67
2021/01/13 03:36:18;;;;;;;4.30;1.90;;;;;;;0.54;76.65;99409.04;2138706;82;28856;-67
2021/01/13 03:39:22;;;;;;;4.55;1.70;;;;;;;0.59;76.75;99415.05;2171460;80;27695;-67
2021/01/13 03:42:26;;;;;;;7.37;2.52;;;;;;;0.64;76.75;99411.02;2143325;80;30192;-67
2021/01/13 03:45:39;;;;;;;5.67;2.12;;;;;;;0.66;76.57;99414.92;2150934;80;31757;-68
2021/01/13 03:48:46;;;;;;;7.92;2.12;;;;;;;0.64;76.47;99416.72;2150323;80;32937;-68
2021/01/13 03:52:02;;;;;;;7.03;2.25;;;;;;;0.62;76.60;99420.72;2164919;80;29589;-67
2021/01/13 03:55:06;;;;;;;4.33;1.90;;;;;;;0.62;76.50;99419.84;2186257;80;27678;-68
2021/01/13 03:58:26;;;;;;;4.40;1.77;;;;;;;0.59;76.48;99430.86;2190550;80;28629;-68
2021/01/13 04:01:46;;;;;;;5.05;2.20;;;;;;;0.60;76.48;99423.84;2166680;80;30817;-67
2021/01/13 04:05:13;;;;;;;4.35;1.95;;;;;;;0.60;76.34;99426.01;2169633;82;33106;-67
2021/01/13 04:08:15;;;;;;;4.40;1.98;;;;;;;0.59;76.31;99428.23;2143099;80;28872;-69
2021/01/13 04:11:21;;;;;;;8.10;3.20;;;;;;;0.59;76.33;99441.41;2156877;80;28977;-68
2021/01/13 04:14:25;;;;;;;4.90;2.02;;;;;;;0.62;76.42;99452.35;2155544;80;29330;-68
2021/01/13 04:17:28;;;;;;;6.47;2.52;;;;;;;0.65;76.56;99450.09;2201964;80;30200;-69
2021/01/13 04:20:31;;;;;;;7.22;2.20;;;;;;;0.70;76.64;99450.86;2164977;80;34026;-69
2021/01/13 04:23:35;;;;;;;7.30;2.30;;;;;;;0.74;76.66;99453.38;2121039;80;28662;-70
2021/01/13 04:26:38;;;;;;;8.20;2.37;;;;;;;0.81;76.61;99460.69;2170765;80;27692;-69
2021/01/13 04:29:42;;;;;;;10.80;2.20;;;;;;;0.83;76.56;99452.77;2145534;80;28829;-70
2021/01/13 04:32:44;;;;;;;5.37;1.77;;;;;;;0.86;76.53;99449.59;2121621;80;31153;-69
2021/01/13 04:35:47;;;;;;;8.75;2.08;;;;;;;0.90;76.41;99444.67;2087732;82;32865;-69
2021/01/13 04:38:50;;;;;;;6.55;2.30;;;;;;;0.96;76.31;99445.41;2112888;82;29622;-70
2021/01/13 04:42:12;;;;;;;9.33;2.33;;;;;;;0.97;76.16;99442.75;2132052;80;28223;-70
2021/01/13 04:45:16;;;;;;;8.50;2.85;;;;;;;1.01;76.12;99452.77;2205609;80;28828;-69
2021/01/13 04:48:20;;;;;;;10.50;2.20;;;;;;;1.01;75.95;99450.98;2167613;81;32118;-69
2021/01/13 04:51:25;;;;;;;7.25;2.15;;;;;;;1.02;75.86;99455.35;2125966;80;33127;-70
2021/01/13 04:54:27;;;;;;;7.30;2.25;;;;;;;0.97;75.69;99445.83;2128175;81;28259;-69
2021/01/13 04:58:13;;;;;;;8.40;2.30;;;;;;;0.90;75.89;99453.91;2130009;80;27887;-70
2021/01/13 05:02:03;;;;;;;11.90;2.20;;;;;;;0.87;76.12;99461.88;2147609;80;29063;-69
2021/01/13 05:05:06;;;;;;;8.98;2.25;;;;;;;0.85;76.38;99465.44;2199582;80;32173;-70
2021/01/13 05:08:29;;;;;;;6.05;2.00;;;;;;;0.91;76.73;99468.79;2143698;81;33161;-68
2021/01/13 05:11:47;;;;;;;7.50;2.40;;;;;;;0.95;76.88;99472.68;2148381;80;29580;-72
2021/01/13 05:14:51;;;;;;;10.63;2.90;;;;;;;1.00;76.91;99472.98;2146366;79;27807;-70
2021/01/13 05:18:11;;;;;;;8.05;2.95;;;;;;;1.06;76.95;99471.99;2215506;78;29720;-70
2021/01/13 05:21:26;;;;;;;7.20;2.00;;;;;;;1.12;76.82;99464.38;2148832;80;31086;-70
2021/01/13 05:24:29;;;;;;;8.00;2.33;;;;;;;1.14;76.75;99469.17;2151013;81;34000;-70
2021/01/13 05:28:04;;;;;;;11.73;2.90;;;;;;;1.15;76.67;99473.08;2128998;80;28862;-69
2021/01/13 05:31:08;;;;;;;8.13;2.52;;;;;;;1.16;76.69;99476.13;2121367;80;27742;-70
2021/01/13 05:34:12;;;;;;;9.68;2.37;;;;;;;1.21;76.64;99468.98;2149322;81;30022;-69
2021/01/13 05:37:17;;;;;;;13.62;2.72;;;;;;;1.25;76.60;99474.16;2151293;81;32151;-70
2021/01/13 05:40:21;;;;;;;11.68;3.50;;;;;;;1.29;76.52;99475.82;2133538;80;33120;-69
2021/01/13 05:43:24;;;;;;;13.48;3.90;;;;;;;1.35;76.58;99475.21;2181591;80;28092;-69
2021/01/13 05:46:35;;;;;;;9.00;2.87;;;;;;;1.41;76.55;99467.58;2145722;81;27624;-70
2021/01/13 05:49:39;;;;;;;14.33;4.03;;;;;;;1.46;76.52;99470.13;2167256;80;28630;-67
2021/01/13 05:52:42;;;;;;;9.15;3.20;;;;;;;1.49;76.48;99474.02;2150499;80;32115;-67
2021/01/13 05:55:50;;;;;;;15.83;3.67;;;;;;;1.49;76.51;99484.58;2120697;81;34078;-71
2021/01/13 05:59:05;;;;;;;12.45;4.20;;;;;;;1.47;76.46;99481.11;2165025;81;28283;-67
2021/01/13 06:02:09;;;;;;;18.15;4.12;;;;;;;1.44;76.47;99482.03;2170370;80;27741;-67
2021/01/13 06:05:14;;;;;;;11.12;3.85;;;;;;;1.39;76.51;99476.02;2207232;80;29065;-68
2021/01/13 06:08:17;;;;;;;18.40;5.45;;;;;;;1.39;76.59;99476.02;2109712;81;31918;-69
2021/01/13 06:11:19;;;;;;;12.63;3.50;;;;;;;1.42;76.68;99476.38;2148863;80;33228;-68
2021/01/13 06:14:27;;;;;;;18.10;4.37;;;;;;;1.44;76.62;99478.53;2146791;81;28920;-68
2021/01/13 06:17:30;;;;;;;19.65;4.58;;;;;;;1.45;76.67;99479.80;2162207;80;27682;-67
2021/01/13 06:20:33;;;;;;;11.60;4.78;;;;;;;1.45;76.75;99482.45;2133268;80;29841;-67
2021/01/13 06:23:48;;;;;;;18.12;5.45;;;;;;;1.44;76.85;99482.03;2104264;81;31204;-66
2021/01/13 06:26:55;;;;;;;10.15;4.53;;;;;;;1.48;76.99;99483.69;2131890;80;32881;-70
2021/01/13 06:30:05;;;;;;;16.70;7.33;;;;;;;1.50;76.99;99477.92;2175578;81;29884;-68
2021/01/13 06:33:10;;;;;;;11.40;5.45;;;;;;;1.50;76.88;99479.24;2094929;80;28148;-67
2021/01/13 06:36:21;;;;;;;;;;;;;;;1.50;76.93;99480.56;2172497;80;29763;-67
2021/01/13 06:39:24;;;;;;;14.65;5.53;;;;;;;1.48;76.87;99479.73;2149052;81;31163;-67
2021/01/13 06:42:30;;;;;;;14.73;4.83;;;;;;;1.43;76.84;99484.25;2164795;80;33125;-68
2021/01/13 06:45:33;;;;;;;9.05;4.70;;;;;;;1.42;76.87;99484.30;2129467;80;28658;-68
2021/01/13 06:48:36;;;;;;;10.90;5.25;;;;;;;1.44;76.99;99485.98;2144075;81;28101;-67
2021/01/13 06:51:44;;;;;;;12.25;4.65;;;;;;;1.49;76.96;99485.89;2127515;80;28616;-67
2021/01/13 06:54:47;;;;;;;11.73;5.80;;;;;;;1.50;76.86;99487.16;2186179;80;32212;-69
2021/01/13 06:57:52;;;;;;;12.18;5.17;;;;;;;1.51;76.76;99498.13;2154346;80;32945;-69
2021/01/13 07:01:05;;;;;;;14.50;4.90;;;;;;;1.50;76.74;99503.44;2165607;80;28397;-68
2021/01/13 07:04:09;;;;;;;16.42;5.67;;;;;;;1.49;76.83;99506.54;2178264;80;28168;-67
2021/01/13 07:10:26;;;;;;;12.97;6.43;;;;;;;1.55;76.78;99513.44;2192593;79;27803;-66
2021/01/13 07:13:31;;;;;;;17.42;5.35;;;;;;;1.50;76.67;99513.55;2182514;81;27651;-67
2021/01/13 07:16:34;;;;;;;12.23;4.87;;;;;;;1.49;76.70;99507.86;2128003;81;28838;-68
2021/01/13 07:19:37;;;;;;;16.62;5.20;;;;;;;1.53;76.68;99515.70;2052554;84;31178;-67
2021/01/13 07:22:40;;;;;;;13.05;6.37;;;;;;;1.58;76.66;99525.67;2095692;82;34277;-67
2021/01/13 07:25:48;;;;;;;14.83;6.60;;;;;;;1.63;76.73;99520.72;2101335;83;28993;-66
2021/01/13 07:28:51;;;;;;;13.15;6.03;;;;;;;1.69;76.74;99517.48;2109227;83;27685;-67
2021/01/13 07:31:57;;;;;;;13.25;4.97;;;;;;;1.72;76.69;99524.02;2081432;83;28016;-72
2021/01/13 07:35:06;;;;;;;16.15;5.95;;;;;;;1.74;76.87;99520.42;2129528;81;31264;-71
2021/01/13 07:38:12;;;;;;;17.27;6.12;;;;;;;1.76;76.87;99522.56;2098633;82;34068;-66
2021/01/13 07:41:37;;;;;;;16.52;5.67;;;;;;;1.79;76.94;99529.56;2070015;82;28486;-71
2021/01/13 07:44:45;;;;;;;14.43;5.53;;;;;;;1.79;76.91;99533.05;2152093;82;27661;-72
2021/01/13 07:48:15;;;;;;;11.55;6.85;;;;;;;1.77;76.91;99529.59;2126714;82;29820;-66
2021/01/13 07:51:20;;;;;;;17.37;6.25;;;;;;;1.79;77.01;99530.41;2053464;82;31313;-66
2021/01/13 07:54:34;;;;;;;13.85;6.08;;;;;;;1.82;77.09;99525.53;2141270;81;34881;-66
2021/01/13 07:57:55;;;;;;;13.70;5.28;;;;;;;1.87;77.07;99528.89;2144073;82;28857;-67
2021/01/13 08:01:53;;;;;;;20.50;7.05;;;;;;;1.91;77.02;99530.98;2114432;81;27610;-69
2021/01/13 08:05:24;;;;;;;22.93;7.75;;;;;;;1.94;77.01;99524.31;2145508;81;28914;-69
2021/01/13 08:08:34;;;;;;;15.45;7.08;;;;;;;1.99;76.97;99527.70;2050466;84;31191;-68
2021/01/13 08:12:10;;;;;;;30.03;10.47;;;;;;;2.06;77.04;99529.28;2292519;77;27949;-66
2021/01/13 08:15:59;;;;;;;25.85;9.83;;;;;;;2.06;76.98;99532.37;2199869;78;27686;-71
2021/01/13 08:19:31;;;;;;;23.20;10.35;;;;;;;2.07;76.95;99531.46;2202513;78;29574;-70
2021/01/13 08:22:36;;;;;;;23.50;9.13;;;;;;;2.05;76.86;99531.95;2099615;83;30948;-70
2021/01/13 08:25:42;;;;;;;;;;;;;;;2.03;76.88;99529.80;2075906;82;33127;-63
2021/01/13 08:28:50;;;;;;;17.80;8.05;;;;;;;2.00;76.90;99537.37;2077476;83;29621;-63
2021/01/13 08:32:11;;;;;;;18.32;7.60;;;;;;;1.97;76.96;99543.61;2111670;81;27605;-64
2021/01/13 08:35:36;;;;;;;20.43;7.07;;;;;;;2.03;77.02;99542.58;2252060;77;27722;-61
2021/01/13 08:38:59;;;;;;;17.62;6.75;;;;;;;1.99;77.00;99538.27;2196244;78;28131;-62
2021/01/13 08:42:29;;;;;;;14.83;6.62;;;;;;;2.04;77.04;99542.98;2025972;84;28625;-63
2021/01/13 08:45:41;;;;;;;18.12;6.08;;;;;;;2.09;77.00;99542.39;2083597;83;30957;-62
2021/01/13 08:48:45;;;;;;;11.78;5.78;;;;;;;2.15;76.80;99550.63;2144120;81;33264;-63
2021/01/13 08:52:21;;;;;;;19.07;6.03;;;;;;;2.21;77.03;99551.77;2137433;83;28956;-62
2021/01/13 08:55:25;;;;;;;14.47;5.05;;;;;;;2.30;76.95;99558.57;2117712;81;27613;-63
2021/01/13 08:58:34;;;;;;;14.28;5.87;;;;;;;2.38;76.70;99559.24;2085886;83;28905;-62
2021/01/13 09:01:37;;;;;;;12.98;6.15;;;;;;;2.35;76.63;99565.05;2043794;83;32088;-61
2021/01/13 09:04:58;;;;;;;14.20;5.95;;;;;;;2.32;76.57;99566.48;2081534;84;33015;-60
2021/01/13 09:08:04;;;;;;;12.75;6.25;;;;;;;2.22;76.45;99568.03;2068201;83;29667;-61
2021/01/13 09:11:09;;;;;;;15.43;7.03;;;;;;;2.08;76.51;99568.39;2120758;83;27682;-62
2021/01/13 09:14:27;;;;;;;60.23;32.90;;;;;;;2.02;76.72;99573.86;2103359;83;30600;-63
2021/01/13 09:17:31;;;;;;;38.90;21.20;;;;;;;1.96;76.74;99575.33;2085566;84;32081;-62
2021/01/13 09:20:34;;;;;;;19.87;11.75;;;;;;;1.92;76.89;99578.95;2084786;83;33884;-62
2021/01/13 09:23:38;;;;;;;14.95;8.03;;;;;;;1.91;77.02;99578.53;2084894;84;28717;-62
2021/01/13 09:26:42;;;;;;;18.00;11.03;;;;;;;1.95;76.97;99582.84;2102725;83;27949;-62
2021/01/13 09:29:53;;;;;;;17.02;8.05;;;;;;;1.96;77.01;99581.50;2121475;83;28630;-62
2021/01/13 09:32:58;;;;;;;16.15;9.70;;;;;;;2.00;77.00;99580.95;2071840;81;31944;-62
2021/01/13 09:36:02;;;;;;;61.33;28.60;;;;;;;2.02;77.10;99582.22;2102018;82;33181;-63
2021/01/13 09:39:15;;;;;;;32.28;13.62;;;;;;;2.10;77.21;99581.58;2102586;82;28943;-62
2021/01/13 09:42:19;;;;;;;36.88;16.00;;;;;;;2.17;77.20;99577.84;2102557;82;27523;-64
2021/01/13 09:45:22;;;;;;;28.85;13.03;;;;;;;2.19;76.98;99573.86;2101971;82;28836;-62
2021/01/13 09:48:28;;;;;;;24.52;11.28;;;;;;;2.23;77.03;99576.84;2125261;82;32060;-63
2021/01/13 09:51:32;;;;;;;37.45;15.40;;;;;;;2.29;76.94;99570.05;2044743;82;32693;-65
2021/01/13 09:54:35;;;;;;;35.03;15.53;;;;;;;2.32;76.83;99571.77;2087992;84;28853;-63
2021/01/13 09:57:38;;;;;;;18.05;10.78;;;;;;;2.39;76.98;99565.38;2058459;84;27587;-64
2021/01/13 10:00:42;;;;;;;18.37;8.85;;;;;;;2.47;76.96;99570.45;2037289;84;29586;-62
2021/01/13 10:03:48;;;;;;;23.60;10.55;;;;;;;2.53;76.87;99568.49;2045483;84;31047;-62
2021/01/13 10:06:56;;;;;;;25.68;8.90;;;;;;;2.63;76.74;99562.48;2069068;84;33114;-63
2021/01/13 10:10:00;;;;;;;21.45;8.55;;;;;;;2.68;76.58;99562.34;2101542;82;28847;-65
2021/01/13 10:13:06;;;;;;;19.12;9.83;;;;;;;2.67;76.32;99558.86;2127120;82;27562;-66
2021/01/13 10:16:11;;;;;;;28.80;12.30;;;;;;;2.66;76.36;99557.12;2126883;82;28961;-65
2021/01/13 10:19:15;;;;;;;23.80;8.75;;;;;;;2.71;76.42;99565.80;2070846;84;31652;-65
2021/01/13 10:22:19;;;;;;;17.23;7.40;;;;;;;2.68;76.30;99553.98;2071667;84;32931;-66
2021/01/13 10:25:28;;;;;;;21.00;9.48;;;;;;;2.70;76.06;99554.80;2059083;84;28669;-63
2021/01/13 10:28:31;;;;;;;22.10;7.72;;;;;;;2.69;76.03;99560.12;2081400;84;27642;-63
2021/01/13 10:31:34;;;;;;;19.52;6.97;;;;;;;2.69;75.97;99558.36;2079929;84;28378;-62
2021/01/13 10:34:37;;;;;;;32.20;12.25;;;;;;;2.80;76.26;99550.55;2036019;84;31075;-63
2021/01/13 10:37:42;;;;;;;21.25;8.18;;;;;;;2.96;76.13;99561.55;2075778;82;33129;-64
2021/01/13 10:40:48;;;;;;;23.20;8.23;;;;;;;3.01;75.81;99559.17;2085386;82;29603;-62
2021/01/13 10:43:55;;;;;;;16.97;7.72;;;;;;;3.06;75.91;99555.05;2127626;82;28287;-63
2021/01/13 10:47:08;;;;;;;23.50;8.75;;;;;;;3.08;75.86;99553.67;2120302;82;28618;-66
2021/01/13 10:50:12;;;;;;;115.12;38.42;;;;;;;3.10;75.69;99558.45;2124385;82;31154;-65
2021/01/13 10:53:16;;;;;;;65.62;23.02;;;;;;;3.13;75.79;99551.75;2137953;82;33111;-65
2021/01/13 10:56:20;;;;;;;41.90;15.35;;;;;;;3.15;75.64;99542.84;2111253;82;28864;-64
2021/01/13 10:59:24;;;;;;;29.63;9.70;;;;;;;3.11;75.49;99542.55;2119105;82;27639;-63
2021/01/13 11:02:27;;;;;;;16.23;5.87;;;;;;;3.07;75.31;99542.67;2087071;83;28630;-64
2021/01/13 11:05:36;;;;;;;22.37;9.43;;;;;;;3.01;75.26;99537.12;2085131;83;31151;-63
2021/01/13 11:08:40;;;;;;;26.35;11.28;;;;;;;2.98;75.23;99535.44;2167867;81;34059;-68
2021/01/13 11:11:44;;;;;;;19.35;6.87;;;;;;;2.96;75.51;99541.70;2066063;84;28968;-66
2021/01/13 11:14:49;;;;;;;18.50;7.08;;;;;;;3.00;75.73;99536.27;2100158;82;27698;-63
2021/01/13 11:17:55;;;;;;;32.90;9.50;;;;;;;3.07;75.51;99542.23;2086836;84;29661;-63
2021/01/13 11:20:58;;;;;;;18.02;5.87;;;;;;;3.14;75.26;99539.81;2103958;82;31053;-69
2021/01/13 11:24:01;;;;;;;17.30;5.65;;;;;;;3.17;75.16;99530.91;2118359;82;33870;-65
2021/01/13 11:27:08;;;;;;;15.15;5.03;;;;;;;3.26;75.10;99525.77;2080059;82;28645;-76
2021/01/13 11:30:13;;;;;;;14.30;4.25;;;;;;;3.34;74.97;99527.26;2108504;82;27735;-62
2021/01/13 11:33:17;;;;;;;14.60;4.62;;;;;;;3.42;74.63;99520.39;2111379;82;28396;-60
2021/01/13 11:36:27;;;;;;;14.75;5.85;;;;;;;3.47;74.42;99514.50;2092830;82;31158;-59
2021/01/13 11:39:31;;;;;;;24.57;8.20;;;;;;;3.49;73.44;99511.78;2111112;82;33941;-59
2021/01/13 11:43:04;;;;;;;11.50;4.75;;;;;;;3.55;74.33;99502.32;2116397;82;28644;-64
2021/01/13 11:46:13;;;;;;;17.82;6.50;;;;;;;3.66;74.08;99503.25;2121652;81;27725;-62
2021/01/13 11:49:20;;;;;;;16.60;5.50;;;;;;;3.74;73.99;99495.92;2095232;83;29814;-68
2021/01/13 11:52:32;;;;;;;17.87;6.35;;;;;;;3.82;73.95;99496.09;2108367;82;30967;-59
2021/01/13 11:55:35;;;;;;;17.92;5.33;;;;;;;3.84;73.50;99492.50;2137790;80;33195;-72
2021/01/13 11:58:46;;;;;;;15.00;5.30;;;;;;;3.85;73.12;99488.05;2075408;82;28316;-61
2021/01/13 12:01:50;;;;;;;21.60;4.72;;;;;;;3.84;73.38;99484.55;2088285;82;27774;-60
2021/01/13 12:04:54;;;;;;;14.30;4.17;;;;;;;3.85;72.94;99487.61;2125165;80;28867;-60
2021/01/13 12:07:59;;;;;;;17.10;4.20;;;;;;;3.82;72.88;99482.85;2097089;82;31068;-64
2021/01/13 12:11:02;;;;;;;15.60;4.70;;;;;;;3.79;72.55;99475.89;2112553;82;33256;-61
2021/01/13 12:14:06;;;;;;;11.70;4.37;;;;;;;3.77;72.76;99476.40;2046114;82;28779;-61
2021/01/13 12:17:09;;;;;;;15.55;4.62;;;;;;;3.79;72.82;99467.50;2089320;84;27741;-60
2021/01/13 12:20:13;;;;;;;14.60;4.03;;;;;;;3.84;72.83;99462.03;2067501;84;30204;-63
2021/01/13 12:23:36;;;;;;;19.98;4.97;;;;;;;3.90;72.78;99460.47;2086490;84;31441;-60
2021/01/13 12:26:38;;;;;;;11.63;6.03;;;;;;;3.93;72.78;99464.81;2089457;84;32939;-61
2021/01/13 12:29:41;;;;;;;17.20;5.13;;;;;;;4.01;72.92;99460.09;2066970;84;28635;-62
2021/01/13 12:32:46;;;;;;;16.82;5.58;;;;;;;4.01;72.35;99463.20;2067821;84;27734;-61
2021/01/13 12:35:49;;;;;;;13.17;5.90;;;;;;;4.01;72.31;99464.06;2067320;84;29788;-62
2021/01/13 12:38:54;;;;;;;13.95;4.72;;;;;;;4.02;72.41;99469.77;2111507;84;31143;-61
2021/01/13 12:42:00;;;;;;;16.82;6.25;;;;;;;4.03;71.69;99462.22;2081422;84;33388;-64
2021/01/13 12:45:05;;;;;;;32.90;14.58;;;;;;;4.08;72.17;99462.05;2091086;84;28517;-63
2021/01/13 12:48:09;;;;;;;47.58;20.40;;;;;;;4.09;72.01;99461.13;2122499;81;28255;-62
2021/01/13 12:51:11;;;;;;;22.40;9.15;;;;;;;4.13;71.92;99462.75;2118815;82;28972;-64
2021/01/13 12:54:14;;;;;;;19.17;10.50;;;;;;;4.14;71.53;99461.84;2091142;84;31158;-64
2021/01/13 12:57:16;;;;;;;20.37;7.90;;;;;;;4.15;71.66;99462.24;2035584;84;33976;-61
2021/01/13 13:00:21;;;;;;;16.00;5.60;;;;;;;4.16;71.83;99465.30;2046388;82;28652;-62
2021/01/13 13:03:23;;;;;;;17.82;4.03;;;;;;;4.15;71.55;99461.36;2101988;82;27686;-61
2021/01/13 13:06:31;;;;;;;17.32;5.17;;;;;;;4.08;71.28;99465.58;2102317;82;28950;-61
2021/01/13 13:09:34;;;;;;;14.35;6.58;;;;;;;4.01;71.47;99468.03;2057152;82;30983;-62
2021/01/13 13:12:37;;;;;;;17.57;7.22;;;;;;;4.00;71.85;99461.48;2076804;84;33958;-61
2021/01/13 13:15:39;;;;;;;25.77;9.43;;;;;;;4.07;71.98;99451.92;2038990;81;28425;-59
2021/01/13 13:18:42;;;;;;;16.55;5.35;;;;;;;4.15;71.81;99463.56;2033146;82;27682;-61
2021/01/13 13:21:44;;;;;;;14.28;4.47;;;;;;;4.21;71.45;99463.36;2083710;82;29334;-61
2021/01/13 13:24:47;;;;;;;14.43;5.40;;;;;;;4.23;71.51;99469.44;2107427;80;31235;-61
2021/01/13 13:27:49;;;;;;;16.62;4.90;;;;;;;4.24;71.52;99463.21;2108600;82;33016;-62
2021/01/13 13:30:51;;;;;;;24.52;7.60;;;;;;;4.28;71.51;99468.41;2062557;82;29634;-63
2021/01/13 13:33:53;;;;;;;16.50;4.70;;;;;;;4.27;71.38;99464.91;2059269;81;28191;-61
2021/01/13 13:37:00;;;;;;;41.65;14.38;;;;;;;4.27;71.06;99466.23;2093699;82;29083;-62
2021/01/13 13:40:05;;;;;;;38.50;14.95;;;;;;;4.25;71.18;99465.42;2095771;82;31280;-63
2021/01/13 13:43:07;;;;;;;20.97;6.53;;;;;;;4.24;71.22;99461.04;2108975;80;34054;-62
2021/01/13 13:46:09;;;;;;;13.88;4.85;;;;;;;4.23;71.01;99454.00;2071759;80;28684;-61
2021/01/13 13:49:11;;;;;;;16.42;5.55;;;;;;;4.17;71.07;99452.89;2106959;82;27870;-61
2021/01/13 13:52:13;;;;;;;14.68;4.33;;;;;;;4.11;70.71;99448.69;2081565;82;28590;-62
2021/01/13 13:55:16;;;;;;;14.83;6.37;;;;;;;4.01;70.72;99451.28;2096700;82;31555;-61
2021/01/13 13:58:18;;;;;;;17.17;5.17;;;;;;;3.91;70.52;99452.08;2069589;82;33546;-61
2021/01/13 14:01:20;;;;;;;16.93;6.15;;;;;;;3.82;70.51;99459.01;2063036;81;29171;-61
2021/01/13 14:04:22;;;;;;;13.13;5.00;;;;;;;3.72;70.82;99462.47;2088026;81;27835;-61
2021/01/13 14:07:25;;;;;;;41.40;12.78;;;;;;;3.67;70.81;99463.08;2074509;83;28963;-62
2021/01/13 14:10:27;;;;;;;17.77;7.55;;;;;;;3.58;70.86;99465.11;2070462;83;30935;-62
2021/01/13 14:13:29;;;;;;;19.20;5.08;;;;;;;3.54;71.00;99468.81;2065798;83;33124;-61
2021/01/13 14:16:31;;;;;;;17.55;4.97;;;;;;;3.54;71.15;99477.20;2070958;83;29303;-62
2021/01/13 14:19:34;;;;;;;10.72;3.35;;;;;;;3.52;71.28;99475.05;2067319;83;28371;-61
2021/01/13 14:22:40;;;;;;;14.15;5.00;;;;;;;3.45;71.22;99471.75;2102815;83;29572;-61
2021/01/13 14:25:42;;;;;;;12.15;5.03;;;;;;;3.39;71.44;99470.66;2107321;83;30961;-60
2021/01/13 14:28:47;;;;;;;17.70;5.87;;;;;;;3.33;71.56;99462.43;2098410;83;33130;-61
2021/01/13 14:31:50;;;;;;;14.58;5.22;;;;;;;3.30;71.71;99466.53;2099186;83;29231;-63
2021/01/13 14:34:52;;;;;;;11.05;5.35;;;;;;;3.29;71.90;99470.94;2107124;82;27801;-61
2021/01/13 14:37:54;;;;;;;15.55;5.83;;;;;;;3.26;71.95;99473.69;2100736;82;31183;-62
2021/01/13 14:40:56;;;;;;;15.43;6.15;;;;;;;3.18;72.19;99473.94;2094500;82;30952;-64
2021/01/13 14:43:59;;;;;;;16.80;6.47;;;;;;;3.17;72.37;99468.70;2101909;82;33032;-61
2021/01/13 14:47:03;;;;;;;18.48;7.55;;;;;;;3.15;72.57;99465.24;2099324;82;29067;-62
2021/01/13 14:50:07;;;;;;;25.52;8.40;;;;;;;3.14;72.65;99465.72;2085209;82;28286;-61